Time;durP1;ratioP1;P1;durP2;ratioP2;P2;SDS_P1;SDS_P2;PMS_P1;PMS_P2;Temp;Humidity;BMP_temperature;BMP_pressure;BME280_temperature;BME280_humidity;BME280_pressure;Samples;Min_cycle;Max_cycle;Signal;HPM_P1;HPM_P2
2020/12/25 00:00:45;;;;;;;9.43;2.65;;;6.20;99.90;;;;;;5050336;28;20021;-72
2020/12/25 00:03:15;;;;;;;9.73;2.65;;;6.20;99.90;;;;;;5047622;28;20250;-73
2020/12/25 00:05:46;;;;;;;10.30;2.72;;;6.20;99.90;;;;;;5048740;28;20485;-72
2020/12/25 00:08:13;;;;;;;7.13;2.50;;;6.20;99.90;;;;;;5046128;28;20025;-73
2020/12/25 00:10:40;;;;;;;7.50;2.45;;;6.20;99.90;;;;;;5035426;28;20621;-74
2020/12/25 00:13:06;;;;;;;13.90;3.05;;;6.20;99.90;;;;;;5039707;28;20078;-74
2020/12/25 00:15:32;;;;;;;9.30;2.88;;;6.20;99.90;;;;;;5046469;28;20111;-74
2020/12/25 00:17:58;;;;;;;8.77;2.45;;;6.20;99.90;;;;;;5040209;28;20021;-74
2020/12/25 00:20:23;;;;;;;9.95;3.10;;;6.20;99.90;;;;;;5043705;28;20880;-73
2020/12/25 00:22:49;;;;;;;10.68;3.22;;;6.20;99.90;;;;;;5039966;28;20096;-73
2020/12/25 00:25:15;;;;;;;12.55;3.05;;;6.20;99.90;;;;;;5045668;28;20037;-74
2020/12/25 00:27:40;;;;;;;6.80;2.72;;;6.20;99.90;;;;;;5046331;28;20171;-74
2020/12/25 00:30:06;;;;;;;15.85;2.97;;;6.20;99.90;;;;;;5042215;28;20025;-74
2020/12/25 00:32:32;;;;;;;5.70;2.65;;;6.20;99.90;;;;;;5048104;28;20052;-74
2020/12/25 00:35:00;;;;;;;10.25;2.95;;;6.20;99.90;;;;;;5044399;28;20185;-74
2020/12/25 00:37:25;;;;;;;8.88;2.45;;;6.20;99.90;;;;;;5047102;28;20025;-74
2020/12/25 00:39:51;;;;;;;6.38;2.33;;;6.20;99.90;;;;;;5043848;28;20104;-74
2020/12/25 00:42:17;;;;;;;8.93;2.72;;;6.20;99.90;;;;;;5046010;28;20029;-74
2020/12/25 00:44:42;;;;;;;4.90;2.30;;;6.20;99.90;;;;;;5049884;28;20033;-74
2020/12/25 00:47:08;;;;;;;6.07;2.20;;;6.20;99.90;;;;;;5053170;28;20108;-74
2020/12/25 00:49:34;;;;;;;9.25;2.67;;;6.10;99.90;;;;;;5049907;28;20464;-74
2020/12/25 00:51:59;;;;;;;11.38;2.85;;;6.10;99.90;;;;;;5047134;28;20056;-74
2020/12/25 00:54:25;;;;;;;8.32;2.00;;;6.10;99.90;;;;;;5041749;28;20040;-73
2020/12/25 00:56:50;;;;;;;8.20;2.33;;;6.10;99.90;;;;;;5052342;28;20028;-73
2020/12/25 00:59:16;;;;;;;11.88;2.55;;;6.10;99.90;;;;;;5046945;28;20060;-75
2020/12/25 01:01:42;;;;;;;10.63;2.40;;;6.00;99.90;;;;;;5044496;28;20033;-74
2020/12/25 01:04:08;;;;;;;6.00;2.33;;;6.00;99.90;;;;;;5050771;28;20405;-74
2020/12/25 01:06:34;;;;;;;6.10;2.55;;;6.00;99.90;;;;;;5052511;28;20120;-74
2020/12/25 01:08:59;;;;;;;6.10;2.47;;;6.00;99.90;;;;;;5050581;28;20044;-73
2020/12/25 01:11:25;;;;;;;8.00;3.03;;;5.90;99.90;;;;;;5042982;28;20029;-73
2020/12/25 01:13:52;;;;;;;6.72;2.60;;;5.90;99.90;;;;;;5046311;28;20045;-73
2020/12/25 01:16:18;;;;;;;8.63;2.08;;;6.00;99.90;;;;;;5046869;28;20025;-74
2020/12/25 01:18:48;;;;;;;9.52;3.50;;;5.90;99.90;;;;;;5050785;28;20527;-74
2020/12/25 01:21:15;;;;;;;5.80;2.22;;;5.90;99.90;;;;;;5051170;28;20144;-73
2020/12/25 01:23:40;;;;;;;6.43;2.70;;;5.80;99.90;;;;;;5051665;28;20477;-74
2020/12/25 01:26:07;;;;;;;10.88;2.40;;;5.80;99.90;;;;;;5051049;28;20029;-74
2020/12/25 01:28:33;;;;;;;8.80;2.38;;;5.60;99.90;;;;;;5051231;28;20013;-74
2020/12/25 01:30:59;;;;;;;7.07;2.50;;;5.60;99.90;;;;;;5049704;28;20110;-73
2020/12/25 01:33:24;;;;;;;7.20;3.08;;;5.50;99.90;;;;;;5043387;28;20083;-73
2020/12/25 01:35:50;;;;;;;7.85;2.88;;;5.50;99.90;;;;;;5048774;28;20024;-74
2020/12/25 01:38:16;;;;;;;10.07;2.45;;;5.40;99.90;;;;;;5050183;28;20028;-74
2020/12/25 01:40:41;;;;;;;9.85;3.55;;;5.50;99.90;;;;;;5050489;28;20029;-74
2020/12/25 01:43:07;;;;;;;7.20;2.40;;;5.50;99.90;;;;;;5043220;28;20033;-73
2020/12/25 01:45:33;;;;;;;8.57;2.60;;;5.40;99.90;;;;;;5049590;28;20032;-74
2020/12/25 01:47:59;;;;;;;11.55;2.65;;;5.40;99.90;;;;;;5049766;28;20049;-73
2020/12/25 01:50:27;;;;;;;9.48;1.88;;;5.50;99.90;;;;;;5050274;28;20025;-73
2020/12/25 01:52:55;;;;;;;6.47;1.88;;;5.50;99.90;;;;;;5049430;28;20029;-73
2020/12/25 01:55:32;;;;;;;11.68;2.58;;;5.50;99.90;;;;;;5047868;28;20481;-73
2020/12/25 01:58:00;;;;;;;10.00;2.55;;;5.40;99.90;;;;;;5045083;28;20100;-74
2020/12/25 02:00:27;;;;;;;10.82;2.35;;;5.40;99.90;;;;;;5046585;28;20037;-73
2020/12/25 02:02:52;;;;;;;8.45;2.25;;;5.40;99.90;;;;;;5048487;28;20100;-72
2020/12/25 02:05:18;;;;;;;9.82;2.88;;;5.50;99.90;;;;;;5042947;28;20132;-72
2020/12/25 02:07:45;;;;;;;5.18;2.17;;;5.40;99.90;;;;;;5046669;28;20371;-73
2020/12/25 02:10:11;;;;;;;5.40;2.30;;;5.40;99.90;;;;;;5047830;28;20104;-72
2020/12/25 02:12:38;;;;;;;13.38;2.67;;;5.20;99.90;;;;;;5049016;28;20568;-72
2020/12/25 02:15:07;;;;;;;7.25;2.38;;;5.20;99.90;;;;;;5046434;28;20143;-72
2020/12/25 02:17:33;;;;;;;8.75;2.40;;;5.20;99.90;;;;;;5048511;28;21404;-72
2020/12/25 02:20:02;;;;;;;9.52;2.42;;;5.10;99.90;;;;;;5046012;28;20378;-72
2020/12/25 02:22:29;;;;;;;9.88;2.30;;;5.00;99.90;;;;;;5044312;28;20021;-72
2020/12/25 02:24:55;;;;;;;11.65;2.58;;;5.00;99.90;;;;;;5042613;28;20037;-72
2020/12/25 02:27:21;;;;;;;9.95;2.83;;;5.00;99.90;;;;;;5047567;28;20523;-73
2020/12/25 02:29:46;;;;;;;7.60;2.17;;;5.00;99.90;;;;;;5044777;28;20794;-72
2020/12/25 02:32:12;;;;;;;7.38;2.45;;;5.00;99.90;;;;;;5048166;28;20029;-73
2020/12/25 02:34:37;;;;;;;7.88;2.22;;;5.00;99.90;;;;;;5051043;28;20045;-73
2020/12/25 02:37:03;;;;;;;7.75;2.63;;;4.90;99.90;;;;;;5040158;28;20025;-72
2020/12/25 02:39:29;;;;;;;9.23;2.70;;;5.00;99.90;;;;;;5047522;28;20032;-72
2020/12/25 02:41:54;;;;;;;12.65;3.55;;;5.10;99.90;;;;;;5048390;28;20060;-72
2020/12/25 02:44:20;;;;;;;6.03;2.35;;;5.10;99.90;;;;;;5044910;28;20125;-73
2020/12/25 02:46:46;;;;;;;12.60;3.30;;;5.20;99.90;;;;;;5047034;28;20059;-74
2020/12/25 02:49:12;;;;;;;8.60;2.78;;;5.20;99.90;;;;;;5048499;28;20061;-73
2020/12/25 02:51:38;;;;;;;7.35;2.85;;;5.20;99.90;;;;;;5046259;28;20063;-74
2020/12/25 02:54:03;;;;;;;9.52;2.47;;;5.20;99.90;;;;;;5049928;28;20021;-73
2020/12/25 02:56:29;;;;;;;4.93;2.60;;;5.20;99.90;;;;;;5045132;28;20025;-73
2020/12/25 02:58:54;;;;;;;8.38;2.72;;;5.20;99.90;;;;;;5046156;28;20443;-73
2020/12/25 03:01:20;;;;;;;5.88;2.50;;;5.20;99.90;;;;;;5047870;28;20036;-73
2020/12/25 03:03:46;;;;;;;6.10;2.80;;;5.20;99.90;;;;;;5046507;28;20100;-73
2020/12/25 03:06:11;;;;;;;8.30;2.60;;;5.20;99.90;;;;;;5049907;28;20033;-74
2020/12/25 03:08:37;;;;;;;6.88;3.33;;;5.10;99.90;;;;;;5049673;28;20025;-73
2020/12/25 03:11:03;;;;;;;11.95;2.75;;;5.10;99.90;;;;;;5049769;28;20092;-73
2020/12/25 03:13:29;;;;;;;5.28;2.40;;;5.10;99.90;;;;;;5046272;28;20377;-73
2020/12/25 03:15:55;;;;;;;8.30;2.97;;;5.10;99.90;;;;;;5043900;28;20063;-73
2020/12/25 03:18:21;;;;;;;8.38;3.10;;;5.10;99.90;;;;;;5044409;28;20065;-73
2020/12/25 03:20:46;;;;;;;6.05;2.80;;;5.10;99.90;;;;;;5045341;28;20465;-73
2020/12/25 03:23:12;;;;;;;7.95;3.28;;;5.10;99.90;;;;;;5049744;28;20507;-74
2020/12/25 03:25:38;;;;;;;16.05;2.85;;;5.10;99.90;;;;;;5048942;28;20116;-73
2020/12/25 03:28:04;;;;;;;8.00;2.20;;;5.10;99.90;;;;;;5049467;28;20089;-73
2020/12/25 03:30:30;;;;;;;7.05;2.58;;;5.00;99.90;;;;;;5047952;28;20032;-73
2020/12/25 03:32:55;;;;;;;6.88;2.97;;;5.00;99.90;;;;;;5049333;28;20017;-73
2020/12/25 03:35:21;;;;;;;4.30;2.30;;;4.90;99.90;;;;;;5048990;28;20780;-73
2020/12/25 03:37:47;;;;;;;10.73;2.60;;;4.90;99.90;;;;;;5048590;28;20442;-73
2020/12/25 03:40:12;;;;;;;7.80;3.10;;;4.90;99.90;;;;;;5046462;28;20385;-72
2020/12/25 03:42:38;;;;;;;8.32;2.70;;;4.90;99.90;;;;;;5046532;28;20500;-73
2020/12/25 03:45:05;;;;;;;6.20;2.35;;;4.90;99.90;;;;;;5048591;28;20033;-73
2020/12/25 03:47:30;;;;;;;6.15;2.40;;;4.80;99.90;;;;;;5044489;28;20059;-73
2020/12/25 03:49:56;;;;;;;7.90;2.85;;;4.80;99.90;;;;;;5041623;28;20108;-73
2020/12/25 03:52:22;;;;;;;7.40;3.13;;;4.70;99.90;;;;;;5048778;28;20025;-73
2020/12/25 03:54:47;;;;;;;9.98;3.05;;;4.60;99.90;;;;;;5043826;28;20029;-73
2020/12/25 03:57:13;;;;;;;7.70;2.70;;;4.50;99.90;;;;;;5048312;28;20100;-73
2020/12/25 03:59:38;;;;;;;4.47;2.40;;;4.60;99.90;;;;;;5050035;28;20033;-73
2020/12/25 04:02:04;;;;;;;8.65;2.72;;;4.60;99.90;;;;;;5045194;28;20105;-73
2020/12/25 04:04:30;;;;;;;8.57;2.95;;;4.70;99.90;;;;;;5045294;28;20479;-72
2020/12/25 04:06:55;;;;;;;6.35;2.45;;;4.80;99.90;;;;;;5047390;28;20436;-73
2020/12/25 04:09:21;;;;;;;6.10;2.90;;;4.90;99.90;;;;;;5050849;28;20445;-73
2020/12/25 04:11:48;;;;;;;6.93;2.80;;;4.90;99.90;;;;;;5042401;28;20029;-73
2020/12/25 04:14:15;;;;;;;5.97;2.00;;;4.90;99.90;;;;;;5044822;28;20033;-73
2020/12/25 04:16:41;;;;;;;7.38;2.53;;;4.90;99.90;;;;;;5048732;28;20100;-72
2020/12/25 04:19:06;;;;;;;4.57;2.10;;;4.80;99.90;;;;;;5046725;28;20097;-73
2020/12/25 04:21:32;;;;;;;11.02;2.40;;;4.80;99.90;;;;;;5044635;28;20939;-74
2020/12/25 04:23:58;;;;;;;6.35;2.25;;;4.90;99.90;;;;;;5048212;28;20032;-72
2020/12/25 04:26:23;;;;;;;6.47;1.90;;;4.90;99.90;;;;;;5045359;28;20036;-73
2020/12/25 04:28:49;;;;;;;8.00;2.42;;;5.00;99.90;;;;;;5051827;28;20473;-73
2020/12/25 04:31:14;;;;;;;6.97;1.92;;;4.90;99.90;;;;;;5052099;28;20029;-73
2020/12/25 04:33:40;;;;;;;3.05;1.98;;;4.90;99.90;;;;;;5051422;28;20021;-73
2020/12/25 04:36:06;;;;;;;12.63;2.90;;;4.80;99.90;;;;;;5044638;28;20029;-73
2020/12/25 04:38:31;;;;;;;7.75;2.50;;;4.80;99.90;;;;;;5042530;28;20056;-72
2020/12/25 04:40:58;;;;;;;4.45;2.50;;;4.70;99.90;;;;;;5041347;28;20029;-73
2020/12/25 04:43:25;;;;;;;9.82;3.08;;;4.70;99.90;;;;;;5042467;28;20034;-73
2020/12/25 04:45:54;;;;;;;8.05;2.20;;;4.60;99.90;;;;;;5042792;28;20033;-73
2020/12/25 04:48:21;;;;;;;9.68;2.83;;;4.60;99.90;;;;;;5047815;28;20474;-73
2020/12/25 04:50:47;;;;;;;3.35;2.05;;;4.60;99.90;;;;;;5042307;28;20029;-73
2020/12/25 04:53:13;;;;;;;7.50;2.53;;;4.60;99.90;;;;;;5052094;28;20025;-73
2020/12/25 04:55:38;;;;;;;10.13;2.38;;;4.60;99.90;;;;;;5050647;28;20032;-73
2020/12/25 04:58:04;;;;;;;5.93;2.40;;;4.60;99.90;;;;;;5050595;28;20033;-73
2020/12/25 05:00:30;;;;;;;7.55;2.28;;;4.50;99.90;;;;;;5052097;28;20025;-73
2020/12/25 05:02:56;;;;;;;9.70;2.35;;;4.50;99.90;;;;;;5048186;28;20460;-74
2020/12/25 05:05:30;;;;;;;7.07;2.13;;;4.50;99.90;;;;;;5042192;28;20121;-73
2020/12/25 05:07:57;;;;;;;5.85;2.53;;;4.40;99.90;;;;;;5048207;28;20429;-73
2020/12/25 05:10:23;;;;;;;4.90;2.50;;;4.30;99.90;;;;;;5050069;28;20033;-73
2020/12/25 05:12:48;;;;;;;10.32;2.53;;;4.30;99.90;;;;;;5049534;28;20500;-73
2020/12/25 05:15:14;;;;;;;7.28;2.15;;;4.30;99.90;;;;;;5053670;28;20030;-73
2020/12/25 05:17:42;;;;;;;8.18;1.77;;;4.30;99.90;;;;;;5048955;28;20484;-73
2020/12/25 05:20:09;;;;;;;8.55;2.20;;;4.30;99.90;;;;;;5043922;28;20057;-73
2020/12/25 05:22:35;;;;;;;9.13;1.65;;;4.30;99.90;;;;;;5046659;28;20507;-73
2020/12/25 05:25:07;;;;;;;8.38;1.85;;;4.30;99.90;;;;;;5046174;28;20061;-73
2020/12/25 05:27:33;;;;;;;;;;;4.30;99.90;;;;;;5052103;28;20052;-74
2020/12/25 05:30:05;;;;;;;5.30;2.15;;;4.40;99.90;;;;;;5048466;28;19960;-73
2020/12/25 05:32:33;;;;;;;6.13;2.47;;;4.50;99.90;;;;;;5044862;28;20021;-73
2020/12/25 05:34:59;;;;;;;5.82;2.20;;;4.50;99.90;;;;;;5043658;28;20544;-73
2020/12/25 05:37:38;;;;;;;5.57;1.90;;;4.50;99.90;;;;;;5044864;28;20029;-74
2020/12/25 05:40:06;;;;;;;6.63;2.10;;;4.40;99.90;;;;;;5047066;28;20061;-73
2020/12/25 05:42:45;;;;;;;5.47;2.03;;;4.40;99.90;;;;;;5044386;28;20032;-73
2020/12/25 05:45:15;;;;;;;8.82;1.83;;;4.40;99.90;;;;;;5045377;28;20119;-73
2020/12/25 05:47:40;;;;;;;3.53;1.77;;;4.50;99.90;;;;;;5043965;28;20018;-73
2020/12/25 05:50:07;;;;;;;4.82;1.70;;;4.50;99.90;;;;;;5044264;28;20509;-73
2020/12/25 05:52:33;;;;;;;5.25;1.73;;;4.50;99.90;;;;;;5047655;28;20032;-72
2020/12/25 05:55:00;;;;;;;6.18;1.63;;;4.40;99.90;;;;;;5049785;28;20029;-72
2020/12/25 05:57:29;;;;;;;5.53;1.50;;;4.40;99.90;;;;;;5051602;28;20025;-72
2020/12/25 05:59:57;;;;;;;7.18;1.65;;;4.40;99.90;;;;;;5039662;28;20048;-72
2020/12/25 06:02:24;;;;;;;5.35;1.33;;;4.40;99.90;;;;;;5046760;28;20079;-73
2020/12/25 06:04:49;;;;;;;5.68;1.80;;;4.40;99.90;;;;;;5042424;28;20124;-73
2020/12/25 06:07:19;;;;;;;5.72;1.50;;;4.50;99.90;;;;;;5048817;28;20112;-73
2020/12/25 06:09:56;;;;;;;5.32;1.85;;;4.50;99.90;;;;;;5045617;28;20067;-73
2020/12/25 06:12:36;;;;;;;7.68;2.00;;;4.50;99.90;;;;;;5041561;28;20128;-72
2020/12/25 06:15:01;;;;;;;5.15;1.70;;;4.50;99.90;;;;;;5045412;28;20055;-73
2020/12/25 06:17:29;;;;;;;6.25;2.03;;;4.60;99.90;;;;;;5048848;28;20028;-73
2020/12/25 06:20:02;;;;;;;7.97;2.92;;;4.60;99.90;;;;;;5045734;28;20021;-73
2020/12/25 06:22:33;;;;;;;5.88;2.70;;;4.60;99.90;;;;;;5050574;28;20032;-73
2020/12/25 06:25:01;;;;;;;5.18;2.42;;;4.50;99.90;;;;;;5041884;28;20540;-72
2020/12/25 06:27:28;;;;;;;7.72;2.60;;;4.60;99.90;;;;;;5044205;28;20164;-73
2020/12/25 06:29:56;;;;;;;8.00;1.90;;;4.60;99.90;;;;;;5047702;28;20413;-73
2020/12/25 06:32:23;;;;;;;10.40;3.75;;;4.60;99.90;;;;;;5038654;28;20021;-72
2020/12/25 06:34:55;;;;;;;14.77;3.70;;;4.60;99.90;;;;;;5042329;28;20033;-73
2020/12/25 06:37:30;;;;;;;11.52;3.60;;;4.60;99.90;;;;;;5039313;28;20040;-74
2020/12/25 06:40:06;;;;;;;12.50;3.47;;;4.60;99.90;;;;;;5041182;28;20029;-73
2020/12/25 06:42:34;;;;;;;6.45;2.97;;;4.70;99.90;;;;;;5045981;28;20029;-72
2020/12/25 06:45:02;;;;;;;9.27;3.90;;;4.70;99.90;;;;;;5050147;28;20032;-73
2020/12/25 06:47:34;;;;;;;6.20;3.33;;;4.80;99.90;;;;;;5044645;28;20102;-73
2020/12/25 06:50:08;;;;;;;9.05;2.90;;;4.70;99.90;;;;;;5045766;28;20497;-72
2020/12/25 06:52:50;;;;;;;4.78;2.45;;;4.80;99.90;;;;;;5049492;28;20025;-73
2020/12/25 06:55:15;;;;;;;7.97;2.55;;;4.80;99.90;;;;;;5043989;28;20040;-73
2020/12/25 06:57:45;;;;;;;6.85;3.13;;;4.80;99.90;;;;;;5043892;28;20026;-73
2020/12/25 07:00:11;;;;;;;6.65;2.50;;;4.70;99.90;;;;;;5037197;28;20026;-72
2020/12/25 07:02:40;;;;;;;4.72;2.53;;;4.70;99.90;;;;;;5046214;28;20477;-73
2020/12/25 07:05:08;;;;;;;6.60;2.58;;;4.60;99.90;;;;;;5049576;28;20098;-73
2020/12/25 07:07:33;;;;;;;5.82;2.25;;;4.60;99.90;;;;;;5047728;28;20028;-73
2020/12/25 07:10:10;;;;;;;8.52;2.42;;;4.60;99.90;;;;;;5040342;28;20037;-72
2020/12/25 07:12:36;;;;;;;7.43;2.22;;;4.60;99.90;;;;;;5040889;28;20036;-73
2020/12/25 07:15:04;;;;;;;7.45;2.40;;;4.60;99.90;;;;;;5034879;28;20429;-73
2020/12/25 07:17:30;;;;;;;5.30;1.90;;;4.60;99.90;;;;;;5047807;28;20473;-73
2020/12/25 07:19:55;;;;;;;4.50;2.45;;;4.60;99.90;;;;;;5041455;28;20109;-73
2020/12/25 07:22:21;;;;;;;7.63;2.22;;;4.60;99.90;;;;;;5042775;28;20033;-73
2020/12/25 07:24:48;;;;;;;6.95;2.78;;;4.50;99.90;;;;;;5048904;28;20068;-72
2020/12/25 07:27:14;;;;;;;9.25;3.75;;;4.50;99.90;;;;;;5039918;28;20017;-74
2020/12/25 07:29:41;;;;;;;9.60;3.58;;;4.40;99.90;;;;;;5043278;28;20074;-72
2020/12/25 07:32:08;;;;;;;12.30;4.30;;;4.50;99.90;;;;;;5059629;28;20492;-73
2020/12/25 07:34:34;;;;;;;10.13;4.30;;;4.50;99.90;;;;;;5043063;28;20035;-73
2020/12/25 07:37:00;;;;;;;6.03;3.60;;;4.40;99.90;;;;;;5043106;28;21370;-73
2020/12/25 07:39:27;;;;;;;6.75;3.17;;;4.40;99.90;;;;;;5037728;28;20048;-73
2020/12/25 07:41:54;;;;;;;9.52;2.88;;;4.50;99.90;;;;;;5042459;28;20481;-73
2020/12/25 07:44:23;;;;;;;6.28;2.88;;;4.50;99.90;;;;;;5039339;28;20045;-73
2020/12/25 07:46:49;;;;;;;5.82;3.08;;;4.50;99.90;;;;;;5049650;28;20121;-73
2020/12/25 07:49:16;;;;;;;12.15;3.45;;;4.50;99.90;;;;;;5045600;28;20035;-73
2020/12/25 07:51:42;;;;;;;8.40;3.40;;;4.50;99.90;;;;;;5046379;28;20025;-72
2020/12/25 07:54:08;;;;;;;11.20;4.07;;;4.50;99.90;;;;;;5049137;28;20025;-74
2020/12/25 07:56:35;;;;;;;9.80;3.53;;;4.50;99.90;;;;;;5047091;28;20059;-74
2020/12/25 07:59:02;;;;;;;11.60;3.45;;;4.50;99.90;;;;;;5045667;28;20083;-73
2020/12/25 08:01:30;;;;;;;13.23;3.22;;;4.50;99.90;;;;;;5043595;28;20438;-73
2020/12/25 08:04:00;;;;;;;11.30;2.78;;;4.50;99.90;;;;;;5041197;28;20029;-74
2020/12/25 08:06:28;;;;;;;8.85;2.80;;;4.50;99.90;;;;;;5047691;28;20500;-73
2020/12/25 08:09:03;;;;;;;9.55;2.42;;;4.40;99.90;;;;;;5047192;28;20428;-74
2020/12/25 08:11:30;;;;;;;10.48;2.75;;;4.50;99.90;;;;;;5037562;28;20370;-73
2020/12/25 08:14:02;;;;;;;10.75;3.10;;;4.50;99.90;;;;;;5041170;28;20033;-73
2020/12/25 08:16:30;;;;;;;6.25;2.17;;;4.50;99.90;;;;;;5042204;28;20524;-74
2020/12/25 08:18:56;;;;;;;8.02;2.95;;;4.60;99.90;;;;;;5047179;28;20109;-74
2020/12/25 08:21:29;;;;;;;12.63;3.20;;;4.60;99.90;;;;;;5040957;28;20437;-74
2020/12/25 08:23:54;;;;;;;12.82;3.80;;;4.70;99.90;;;;;;5040440;28;20029;-74
2020/12/25 08:26:29;;;;;;;10.75;3.97;;;4.70;99.90;;;;;;5040545;28;20037;-73
2020/12/25 08:28:55;;;;;;;9.25;3.60;;;4.70;99.90;;;;;;5041670;28;20029;-73
2020/12/25 08:31:20;;;;;;;7.07;2.55;;;4.70;99.90;;;;;;5043212;28;20079;-73
2020/12/25 08:33:56;;;;;;;6.38;2.40;;;4.70;99.90;;;;;;5045081;28;20017;-74
2020/12/25 08:36:23;;;;;;;7.25;2.78;;;4.70;99.90;;;;;;5042216;28;20112;-74
2020/12/25 08:38:49;;;;;;;6.75;2.13;;;4.70;99.90;;;;;;5046629;28;20017;-74
2020/12/25 08:41:15;;;;;;;8.35;2.35;;;4.70;99.90;;;;;;5043289;28;20040;-73
2020/12/25 08:43:41;;;;;;;9.40;2.20;;;4.80;99.90;;;;;;5046943;28;20021;-73
2020/12/25 08:46:06;;;;;;;9.93;2.47;;;4.80;99.90;;;;;;5046501;28;20032;-74
2020/12/25 08:48:48;;;;;;;7.05;3.10;;;4.80;99.90;;;;;;5045848;28;20048;-73
2020/12/25 08:51:15;;;;;;;11.02;3.40;;;4.70;99.90;;;;;;5039691;28;20490;-74
2020/12/25 08:53:54;;;;;;;9.75;3.33;;;4.70;99.90;;;;;;5040163;28;20107;-73
2020/12/25 08:56:21;;;;;;;14.05;4.03;;;4.70;99.90;;;;;;5041934;28;20032;-73
2020/12/25 08:58:57;;;;;;;7.40;2.80;;;4.70;99.90;;;;;;5049394;28;20054;-73
2020/12/25 09:01:23;;;;;;;12.48;2.70;;;4.70;99.90;;;;;;5044174;28;20109;-73
2020/12/25 09:03:49;;;;;;;10.77;2.72;;;4.70;99.90;;;;;;5046083;28;20056;-73
2020/12/25 09:06:15;;;;;;;15.52;3.30;;;4.80;99.90;;;;;;5046306;28;20112;-73
2020/12/25 09:08:41;;;;;;;9.75;3.03;;;4.80;99.90;;;;;;5041885;28;20108;-72
2020/12/25 09:11:11;;;;;;;14.38;3.40;;;4.80;99.90;;;;;;5049937;28;20032;-72
2020/12/25 09:13:38;;;;;;;9.02;2.80;;;4.90;99.90;;;;;;5044167;28;20032;-71
2020/12/25 09:16:07;;;;;;;11.30;2.90;;;4.90;99.90;;;;;;5046122;28;20029;-73
2020/12/25 09:18:34;;;;;;;10.63;3.65;;;4.90;99.90;;;;;;5042904;28;20022;-73
2020/12/25 09:21:00;;;;;;;9.50;3.22;;;4.90;99.90;;;;;;5050463;28;20033;-73
2020/12/25 09:23:29;;;;;;;11.85;3.33;;;5.00;99.90;;;;;;5043747;28;20021;-73
2020/12/25 09:25:55;;;;;;;9.65;3.17;;;5.00;99.90;;;;;;5042381;28;20045;-73
2020/12/25 09:28:24;;;;;;;12.90;2.65;;;5.10;99.90;;;;;;5042389;28;20034;-73
2020/12/25 09:30:56;;;;;;;7.97;2.90;;;5.20;99.90;;;;;;5044570;28;20499;-73
2020/12/25 09:33:22;;;;;;;12.48;3.03;;;5.20;99.90;;;;;;5058978;28;20060;-73
2020/12/25 09:35:49;;;;;;;6.07;3.20;;;5.30;99.90;;;;;;5047016;28;20076;-73
2020/12/25 09:38:14;;;;;;;11.02;2.95;;;5.30;99.90;;;;;;5051819;28;20032;-73
2020/12/25 09:40:40;;;;;;;11.95;3.42;;;5.30;99.90;;;;;;5049166;28;20018;-73
2020/12/25 09:43:06;;;;;;;8.48;3.22;;;5.30;99.90;;;;;;5045481;28;20392;-73
2020/12/25 09:45:32;;;;;;;12.13;3.20;;;5.30;99.90;;;;;;5048523;28;20504;-72
2020/12/25 09:47:57;;;;;;;8.07;2.55;;;5.30;99.90;;;;;;5046677;28;20354;-73
2020/12/25 09:50:23;;;;;;;8.18;2.97;;;5.30;99.90;;;;;;5044483;28;20084;-73
2020/12/25 09:52:49;;;;;;;10.18;3.00;;;5.30;99.90;;;;;;5043348;28;20096;-73
2020/12/25 09:55:14;;;;;;;8.88;3.72;;;5.40;99.90;;;;;;5049357;28;20072;-73
2020/12/25 09:57:40;;;;;;;19.08;6.38;;;5.40;99.90;;;;;;5042844;28;20029;-73
2020/12/25 10:00:10;;;;;;;14.40;7.07;;;5.50;99.90;;;;;;5042924;28;20065;-73
2020/12/25 10:02:37;;;;;;;12.45;4.13;;;5.50;99.90;;;;;;5049793;28;20044;-73
2020/12/25 10:05:06;;;;;;;11.52;3.63;;;5.50;99.90;;;;;;5043334;28;20091;-73
2020/12/25 10:07:32;;;;;;;15.45;2.80;;;5.60;99.90;;;;;;5045883;28;20025;-73
2020/12/25 10:09:58;;;;;;;9.57;2.33;;;5.50;99.90;;;;;;5047967;28;20422;-74
2020/12/25 10:12:24;;;;;;;12.30;2.75;;;5.50;99.90;;;;;;5045806;28;20029;-73
2020/12/25 10:14:49;;;;;;;15.23;2.72;;;5.50;99.90;;;;;;5049301;28;20025;-73
2020/12/25 10:17:15;;;;;;;12.13;2.67;;;5.60;99.90;;;;;;5044205;28;20025;-73
2020/12/25 10:19:41;;;;;;;11.85;3.42;;;5.70;99.90;;;;;;5037123;28;20037;-73
2020/12/25 10:22:07;;;;;;;9.80;2.75;;;5.70;99.90;;;;;;5047330;28;20017;-73
2020/12/25 10:24:32;;;;;;;12.93;2.17;;;5.70;99.90;;;;;;5050851;28;20115;-73
2020/12/25 10:26:58;;;;;;;15.02;2.70;;;5.70;99.90;;;;;;5042150;28;20052;-73
2020/12/25 10:29:24;;;;;;;8.48;2.65;;;5.60;99.90;;;;;;5043312;28;20071;-73
2020/12/25 10:31:50;;;;;;;10.57;2.67;;;5.70;99.90;;;;;;5043865;28;20429;-73
2020/12/25 10:34:16;;;;;;;10.18;2.53;;;5.70;99.90;;;;;;5039349;28;20036;-73
2020/12/25 10:36:43;;;;;;;8.98;3.10;;;5.70;99.90;;;;;;5044045;28;20028;-73
2020/12/25 10:39:12;;;;;;;13.98;3.40;;;5.70;99.90;;;;;;5041264;28;20033;-73
2020/12/25 10:41:38;;;;;;;10.52;2.38;;;5.70;99.90;;;;;;5042544;28;20029;-72
2020/12/25 10:44:04;;;;;;;10.80;2.25;;;5.70;99.90;;;;;;5050382;28;20033;-73
2020/12/25 10:46:29;;;;;;;11.85;2.80;;;5.80;99.90;;;;;;5051356;28;20515;-73
2020/12/25 10:48:55;;;;;;;14.93;2.63;;;5.80;99.90;;;;;;5039850;28;20029;-73
2020/12/25 10:51:21;;;;;;;18.40;2.88;;;5.90;99.90;;;;;;5049680;28;20028;-73
2020/12/25 10:53:47;;;;;;;10.13;2.40;;;5.90;99.90;;;;;;5045156;28;20109;-73
2020/12/25 10:56:24;;;;;;;7.53;2.03;;;5.90;99.90;;;;;;5041806;28;20029;-73
2020/12/25 10:58:50;;;;;;;15.43;2.25;;;6.00;99.90;;;;;;5043314;28;20485;-74
2020/12/25 11:01:22;;;;;;;12.68;2.13;;;6.00;99.90;;;;;;5048878;28;20489;-73
2020/12/25 11:03:48;;;;;;;15.23;3.05;;;6.10;99.90;;;;;;5048092;28;20398;-73
2020/12/25 11:06:14;;;;;;;14.88;2.42;;;6.10;99.90;;;;;;5036521;28;20032;-74
2020/12/25 11:08:39;;;;;;;11.23;2.05;;;6.00;99.90;;;;;;5046680;28;20052;-73
2020/12/25 11:11:05;;;;;;;10.43;2.28;;;5.90;99.90;;;;;;5042020;28;20033;-74
2020/12/25 11:13:33;;;;;;;14.60;2.13;;;5.90;99.90;;;;;;5045681;28;20051;-74
2020/12/25 11:15:59;;;;;;;13.05;2.53;;;6.00;99.90;;;;;;5043480;28;20033;-74
2020/12/25 11:18:24;;;;;;;13.38;2.70;;;6.00;99.90;;;;;;5048666;28;20025;-73
2020/12/25 11:20:50;;;;;;;11.40;2.63;;;6.00;99.90;;;;;;5046314;28;20025;-74
2020/12/25 11:23:16;;;;;;;9.18;2.22;;;6.00;99.90;;;;;;5043353;28;20024;-74
2020/12/25 11:25:41;;;;;;;13.43;2.50;;;6.10;99.90;;;;;;5047811;28;20033;-73
2020/12/25 11:28:07;;;;;;;11.25;2.10;;;6.10;99.90;;;;;;5048606;28;20024;-73
2020/12/25 11:30:32;;;;;;;17.90;2.20;;;6.10;99.90;;;;;;5047403;28;20044;-74
2020/12/25 11:32:58;;;;;;;9.80;1.95;;;6.10;99.90;;;;;;5049360;28;20024;-74
2020/12/25 11:35:24;;;;;;;8.55;2.63;;;6.20;99.90;;;;;;5049364;28;20043;-73
2020/12/25 11:37:49;;;;;;;11.48;2.00;;;6.10;99.90;;;;;;5047881;28;20025;-73
2020/12/25 11:40:15;;;;;;;9.18;1.77;;;6.00;99.90;;;;;;5048191;28;20033;-74
2020/12/25 11:42:40;;;;;;;11.45;2.40;;;6.20;99.90;;;;;;5044310;28;20061;-73
2020/12/25 11:45:06;;;;;;;11.52;1.92;;;6.30;99.90;;;;;;5041574;28;20034;-73
2020/12/25 11:47:32;;;;;;;13.85;2.53;;;6.20;99.90;;;;;;5045971;28;20021;-73
2020/12/25 11:49:58;;;;;;;9.43;1.75;;;6.10;99.90;;;;;;5045154;28;20469;-74
2020/12/25 11:52:29;;;;;;;9.05;1.73;;;6.20;99.90;;;;;;5049827;28;20025;-74
2020/12/25 11:54:55;;;;;;;5.50;1.48;;;6.40;99.90;;;;;;5042263;28;20032;-75
2020/12/25 11:57:20;;;;;;;19.17;2.75;;;6.30;99.90;;;;;;5047766;28;20021;-73
2020/12/25 11:59:46;;;;;;;10.25;1.55;;;6.30;99.90;;;;;;5048464;28;20028;-72
2020/12/25 12:02:11;;;;;;;5.15;1.45;;;6.30;99.90;;;;;;5033541;28;20029;-73
2020/12/25 12:04:37;;;;;;;9.30;1.92;;;6.40;99.90;;;;;;5046833;28;20033;-73
2020/12/25 12:07:03;;;;;;;11.25;1.88;;;6.50;99.90;;;;;;5053195;28;20116;-73
2020/12/25 12:09:28;;;;;;;4.85;1.40;;;6.50;99.90;;;;;;5043489;28;20100;-73
2020/12/25 12:11:54;;;;;;;6.70;1.40;;;6.60;99.90;;;;;;5042064;28;20462;-73
2020/12/25 12:14:20;;;;;;;7.75;1.67;;;6.40;99.90;;;;;;5044013;28;20033;-74
2020/12/25 12:16:45;;;;;;;10.82;1.85;;;6.60;99.90;;;;;;5041834;28;20033;-73
2020/12/25 12:19:11;;;;;;;10.32;1.88;;;6.60;99.90;;;;;;5042645;28;20032;-72
2020/12/25 12:21:37;;;;;;;5.43;1.38;;;6.60;99.90;;;;;;5047583;28;20367;-73
2020/12/25 12:24:02;;;;;;;13.90;2.00;;;6.60;99.90;;;;;;5045150;28;20107;-72
2020/12/25 12:26:28;;;;;;;6.85;1.17;;;6.60;99.90;;;;;;5041880;28;20152;-72
2020/12/25 12:28:53;;;;;;;7.43;1.27;;;6.60;99.90;;;;;;5044986;28;20032;-72
2020/12/25 12:31:19;;;;;;;8.27;1.50;;;6.50;99.90;;;;;;5041530;28;20040;-72
2020/12/25 12:33:50;;;;;;;8.63;2.08;;;6.60;99.90;;;;;;5043697;28;20030;-72
2020/12/25 12:36:16;;;;;;;11.32;2.35;;;6.60;99.90;;;;;;5040655;28;20078;-73
2020/12/25 12:38:41;;;;;;;6.68;1.52;;;6.60;99.90;;;;;;5042702;28;20127;-72
2020/12/25 12:41:07;;;;;;;15.57;2.03;;;6.60;99.90;;;;;;5045882;28;20033;-73
2020/12/25 12:43:32;;;;;;;10.63;1.75;;;6.70;99.90;;;;;;5045850;28;20025;-73
2020/12/25 12:45:58;;;;;;;8.18;1.77;;;6.50;99.90;;;;;;5049693;28;20041;-73
2020/12/25 12:48:24;;;;;;;5.55;1.30;;;6.70;99.90;;;;;;5045875;28;20021;-72
2020/12/25 12:50:50;;;;;;;10.85;1.92;;;6.70;99.90;;;;;;5053053;28;20067;-73